sensor_id;sensor_type;location;lat;lon;timestamp;P1;durP1;ratioP1;P2;durP2;ratioP2
33593;SDS011;19920;52.242;20.940;2022-12-18T00:01:16;32.90;;;16.48;;
33593;SDS011;19920;52.242;20.940;2022-12-18T00:06:15;32.85;;;15.07;;
33593;SDS011;19920;52.242;20.940;2022-12-18T00:08:41;31.88;;;15.93;;
33593;SDS011;19920;52.242;20.940;2022-12-18T00:11:10;33.17;;;16.40;;
33593;SDS011;19920;52.242;20.940;2022-12-18T00:13:41;32.55;;;15.43;;
33593;SDS011;19920;52.242;20.940;2022-12-18T00:16:07;30.63;;;16.20;;
33593;SDS011;19920;52.242;20.940;2022-12-18T00:18:35;33.63;;;15.82;;
33593;SDS011;19920;52.242;20.940;2022-12-18T00:21:02;32.38;;;15.15;;
33593;SDS011;19920;52.242;20.940;2022-12-18T00:23:29;31.00;;;15.38;;
33593;SDS011;19920;52.242;20.940;2022-12-18T00:26:02;34.70;;;16.52;;
33593;SDS011;19920;52.242;20.940;2022-12-18T00:28:29;38.50;;;16.27;;
33593;SDS011;19920;52.242;20.940;2022-12-18T00:33:28;32.25;;;16.08;;
33593;SDS011;19920;52.242;20.940;2022-12-18T00:35:54;37.15;;;16.25;;
33593;SDS011;19920;52.242;20.940;2022-12-18T00:38:19;33.60;;;17.65;;
33593;SDS011;19920;52.242;20.940;2022-12-18T00:40:45;33.10;;;15.40;;
33593;SDS011;19920;52.242;20.940;2022-12-18T00:43:10;33.10;;;16.48;;
33593;SDS011;19920;52.242;20.940;2022-12-18T00:45:36;33.20;;;16.88;;
33593;SDS011;19920;52.242;20.940;2022-12-18T00:48:02;35.30;;;15.90;;
33593;SDS011;19920;52.242;20.940;2022-12-18T00:50:28;33.42;;;16.05;;
33593;SDS011;19920;52.242;20.940;2022-12-18T00:52:53;34.50;;;16.73;;
33593;SDS011;19920;52.242;20.940;2022-12-18T00:55:19;36.25;;;16.17;;
33593;SDS011;19920;52.242;20.940;2022-12-18T00:57:45;33.75;;;16.10;;
33593;SDS011;19920;52.242;20.940;2022-12-18T01:00:12;34.83;;;15.45;;
33593;SDS011;19920;52.242;20.940;2022-12-18T01:02:40;32.28;;;15.93;;
33593;SDS011;19920;52.242;20.940;2022-12-18T01:05:06;34.05;;;16.50;;
33593;SDS011;19920;52.242;20.940;2022-12-18T01:07:32;31.50;;;16.05;;
33593;SDS011;19920;52.242;20.940;2022-12-18T01:09:58;37.78;;;17.58;;
33593;SDS011;19920;52.242;20.940;2022-12-18T01:12:24;37.08;;;16.88;;
33593;SDS011;19920;52.242;20.940;2022-12-18T01:14:49;36.45;;;16.00;;
33593;SDS011;19920;52.242;20.940;2022-12-18T01:17:15;41.65;;;17.17;;
33593;SDS011;19920;52.242;20.940;2022-12-18T01:19:41;34.72;;;16.13;;
33593;SDS011;19920;52.242;20.940;2022-12-18T01:22:06;36.25;;;16.55;;
33593;SDS011;19920;52.242;20.940;2022-12-18T01:24:32;33.63;;;15.98;;
33593;SDS011;19920;52.242;20.940;2022-12-18T01:26:58;38.88;;;16.25;;
33593;SDS011;19920;52.242;20.940;2022-12-18T01:29:23;34.70;;;14.73;;
33593;SDS011;19920;52.242;20.940;2022-12-18T01:31:49;38.65;;;17.00;;
33593;SDS011;19920;52.242;20.940;2022-12-18T01:34:15;38.13;;;16.83;;
33593;SDS011;19920;52.242;20.940;2022-12-18T01:36:41;37.38;;;15.90;;
33593;SDS011;19920;52.242;20.940;2022-12-18T01:39:07;39.95;;;16.48;;
33593;SDS011;19920;52.242;20.940;2022-12-18T01:47:23;35.88;;;15.57;;
33593;SDS011;19920;52.242;20.940;2022-12-18T01:50:11;38.63;;;16.13;;
33593;SDS011;19920;52.242;20.940;2022-12-18T01:52:52;33.75;;;15.55;;
33593;SDS011;19920;52.242;20.940;2022-12-18T01:55:31;35.38;;;16.02;;
33593;SDS011;19920;52.242;20.940;2022-12-18T01:58:02;32.08;;;14.93;;
33593;SDS011;19920;52.242;20.940;2022-12-18T02:00:28;35.80;;;15.10;;
33593;SDS011;19920;52.242;20.940;2022-12-18T02:02:55;36.90;;;15.73;;
33593;SDS011;19920;52.242;20.940;2022-12-18T02:05:55;33.13;;;15.02;;
33593;SDS011;19920;52.242;20.940;2022-12-18T02:08:20;35.85;;;15.13;;
33593;SDS011;19920;52.242;20.940;2022-12-18T02:13:19;36.85;;;15.57;;
33593;SDS011;19920;52.242;20.940;2022-12-18T02:18:36;36.78;;;16.00;;
33593;SDS011;19920;52.242;20.940;2022-12-18T02:26:41;35.03;;;16.33;;
33593;SDS011;19920;52.242;20.940;2022-12-18T02:31:57;41.90;;;17.75;;
33593;SDS011;19920;52.242;20.940;2022-12-18T02:34:25;41.22;;;17.33;;
33593;SDS011;19920;52.242;20.940;2022-12-18T02:36:55;40.65;;;17.98;;
33593;SDS011;19920;52.242;20.940;2022-12-18T02:39:24;38.58;;;17.40;;
33593;SDS011;19920;52.242;20.940;2022-12-18T02:41:51;37.70;;;16.90;;
33593;SDS011;19920;52.242;20.940;2022-12-18T02:44:17;33.67;;;16.10;;
33593;SDS011;19920;52.242;20.940;2022-12-18T02:46:46;40.42;;;17.10;;
33593;SDS011;19920;52.242;20.940;2022-12-18T02:49:24;40.95;;;17.35;;
33593;SDS011;19920;52.242;20.940;2022-12-18T03:00:40;41.30;;;17.02;;
33593;SDS011;19920;52.242;20.940;2022-12-18T03:03:12;38.28;;;16.77;;
33593;SDS011;19920;52.242;20.940;2022-12-18T03:08:30;36.23;;;16.27;;
33593;SDS011;19920;52.242;20.940;2022-12-18T03:14:10;37.70;;;16.85;;
33593;SDS011;19920;52.242;20.940;2022-12-18T03:16:25;39.60;;;17.45;;
33593;SDS011;19920;52.242;20.940;2022-12-18T03:19:01;34.58;;;15.68;;
33593;SDS011;19920;52.242;20.940;2022-12-18T03:21:42;31.55;;;13.15;;
33593;SDS011;19920;52.242;20.940;2022-12-18T03:24:12;39.60;;;16.23;;
33593;SDS011;19920;52.242;20.940;2022-12-18T03:26:40;39.38;;;16.10;;
33593;SDS011;19920;52.242;20.940;2022-12-18T03:29:12;42.53;;;17.63;;
33593;SDS011;19920;52.242;20.940;2022-12-18T03:31:42;42.20;;;17.58;;
33593;SDS011;19920;52.242;20.940;2022-12-18T03:34:15;40.40;;;17.33;;
33593;SDS011;19920;52.242;20.940;2022-12-18T03:36:46;35.92;;;16.40;;
33593;SDS011;19920;52.242;20.940;2022-12-18T03:39:12;41.50;;;17.58;;
33593;SDS011;19920;52.242;20.940;2022-12-18T03:41:45;36.90;;;16.85;;
33593;SDS011;19920;52.242;20.940;2022-12-18T03:44:40;40.38;;;16.73;;
33593;SDS011;19920;52.242;20.940;2022-12-18T03:47:27;41.42;;;17.20;;
33593;SDS011;19920;52.242;20.940;2022-12-18T03:49:57;38.08;;;16.75;;
33593;SDS011;19920;52.242;20.940;2022-12-18T03:55:14;41.47;;;15.80;;
33593;SDS011;19920;52.242;20.940;2022-12-18T03:57:42;34.67;;;16.08;;
33593;SDS011;19920;52.242;20.940;2022-12-18T04:00:10;37.28;;;16.08;;
33593;SDS011;19920;52.242;20.940;2022-12-18T04:02:38;37.70;;;15.70;;
33593;SDS011;19920;52.242;20.940;2022-12-18T04:05:09;41.70;;;16.85;;
33593;SDS011;19920;52.242;20.940;2022-12-18T04:07:36;38.63;;;15.43;;
33593;SDS011;19920;52.242;20.940;2022-12-18T04:10:03;41.03;;;15.68;;
33593;SDS011;19920;52.242;20.940;2022-12-18T04:12:32;34.55;;;15.10;;
33593;SDS011;19920;52.242;20.940;2022-12-18T04:14:57;31.73;;;13.35;;
33593;SDS011;19920;52.242;20.940;2022-12-18T04:17:23;30.98;;;13.73;;
33593;SDS011;19920;52.242;20.940;2022-12-18T04:19:49;36.80;;;14.77;;
33593;SDS011;19920;52.242;20.940;2022-12-18T04:22:14;33.75;;;14.23;;
33593;SDS011;19920;52.242;20.940;2022-12-18T04:24:40;32.70;;;14.27;;
33593;SDS011;19920;52.242;20.940;2022-12-18T04:27:06;33.50;;;13.02;;
33593;SDS011;19920;52.242;20.940;2022-12-18T04:29:32;35.00;;;13.95;;
33593;SDS011;19920;52.242;20.940;2022-12-18T04:31:58;32.13;;;13.07;;
33593;SDS011;19920;52.242;20.940;2022-12-18T04:34:23;35.22;;;14.55;;
33593;SDS011;19920;52.242;20.940;2022-12-18T04:36:49;34.28;;;13.52;;
33593;SDS011;19920;52.242;20.940;2022-12-18T04:39:15;30.40;;;12.80;;
33593;SDS011;19920;52.242;20.940;2022-12-18T04:41:40;33.33;;;13.77;;
33593;SDS011;19920;52.242;20.940;2022-12-18T04:44:06;33.05;;;13.75;;
33593;SDS011;19920;52.242;20.940;2022-12-18T04:46:32;32.20;;;12.93;;
33593;SDS011;19920;52.242;20.940;2022-12-18T04:48:57;31.90;;;13.68;;
33593;SDS011;19920;52.242;20.940;2022-12-18T04:51:23;34.50;;;14.57;;
33593;SDS011;19920;52.242;20.940;2022-12-18T04:53:49;29.42;;;13.93;;
33593;SDS011;19920;52.242;20.940;2022-12-18T04:56:14;27.38;;;13.13;;
33593;SDS011;19920;52.242;20.940;2022-12-18T04:58:41;37.58;;;14.45;;
33593;SDS011;19920;52.242;20.940;2022-12-18T05:01:08;29.00;;;12.90;;
33593;SDS011;19920;52.242;20.940;2022-12-18T05:03:35;32.20;;;14.10;;
33593;SDS011;19920;52.242;20.940;2022-12-18T05:06:02;33.08;;;13.23;;
33593;SDS011;19920;52.242;20.940;2022-12-18T05:08:28;33.47;;;13.57;;
33593;SDS011;19920;52.242;20.940;2022-12-18T05:11:04;32.40;;;14.00;;
33593;SDS011;19920;52.242;20.940;2022-12-18T05:13:35;29.80;;;13.10;;
33593;SDS011;19920;52.242;20.940;2022-12-18T05:16:01;39.50;;;14.40;;
33593;SDS011;19920;52.242;20.940;2022-12-18T05:18:27;37.28;;;14.57;;
33593;SDS011;19920;52.242;20.940;2022-12-18T05:20:53;39.25;;;14.55;;
33593;SDS011;19920;52.242;20.940;2022-12-18T05:23:20;41.63;;;16.17;;
33593;SDS011;19920;52.242;20.940;2022-12-18T05:25:49;40.10;;;15.20;;
33593;SDS011;19920;52.242;20.940;2022-12-18T05:28:17;41.55;;;16.52;;
33593;SDS011;19920;52.242;20.940;2022-12-18T05:30:42;47.33;;;16.95;;
33593;SDS011;19920;52.242;20.940;2022-12-18T05:33:14;49.50;;;16.65;;
33593;SDS011;19920;52.242;20.940;2022-12-18T05:35:40;44.97;;;17.55;;
33593;SDS011;19920;52.242;20.940;2022-12-18T05:38:06;48.63;;;16.83;;
33593;SDS011;19920;52.242;20.940;2022-12-18T05:40:31;46.00;;;17.42;;
33593;SDS011;19920;52.242;20.940;2022-12-18T05:42:57;44.63;;;16.77;;
33593;SDS011;19920;52.242;20.940;2022-12-18T05:45:22;44.28;;;16.60;;
33593;SDS011;19920;52.242;20.940;2022-12-18T05:47:48;47.95;;;17.48;;
33593;SDS011;19920;52.242;20.940;2022-12-18T05:50:14;46.67;;;17.70;;
33593;SDS011;19920;52.242;20.940;2022-12-18T05:52:39;49.58;;;17.75;;
33593;SDS011;19920;52.242;20.940;2022-12-18T05:55:05;54.05;;;18.30;;
33593;SDS011;19920;52.242;20.940;2022-12-18T05:57:31;47.78;;;18.02;;
33593;SDS011;19920;52.242;20.940;2022-12-18T05:59:57;49.78;;;18.92;;
33593;SDS011;19920;52.242;20.940;2022-12-18T06:02:22;46.25;;;18.90;;
33593;SDS011;19920;52.242;20.940;2022-12-18T06:04:48;51.83;;;18.23;;
33593;SDS011;19920;52.242;20.940;2022-12-18T06:07:14;54.83;;;18.58;;
33593;SDS011;19920;52.242;20.940;2022-12-18T06:09:39;46.35;;;18.50;;
33593;SDS011;19920;52.242;20.940;2022-12-18T06:12:05;48.15;;;17.45;;
33593;SDS011;19920;52.242;20.940;2022-12-18T06:14:31;47.13;;;19.33;;
33593;SDS011;19920;52.242;20.940;2022-12-18T06:16:56;46.78;;;18.63;;
33593;SDS011;19920;52.242;20.940;2022-12-18T06:19:22;54.33;;;18.92;;
33593;SDS011;19920;52.242;20.940;2022-12-18T06:21:48;56.30;;;18.73;;
33593;SDS011;19920;52.242;20.940;2022-12-18T06:24:14;46.53;;;18.58;;
33593;SDS011;19920;52.242;20.940;2022-12-18T06:26:40;49.53;;;19.15;;
33593;SDS011;19920;52.242;20.940;2022-12-18T06:29:06;49.70;;;17.95;;
33593;SDS011;19920;52.242;20.940;2022-12-18T06:31:31;53.03;;;18.70;;
33593;SDS011;19920;52.242;20.940;2022-12-18T06:33:57;48.10;;;19.23;;
33593;SDS011;19920;52.242;20.940;2022-12-18T06:36:23;53.13;;;19.95;;
33593;SDS011;19920;52.242;20.940;2022-12-18T06:38:49;49.35;;;17.48;;
33593;SDS011;19920;52.242;20.940;2022-12-18T06:41:15;50.63;;;18.75;;
33593;SDS011;19920;52.242;20.940;2022-12-18T06:43:43;46.45;;;17.92;;
33593;SDS011;19920;52.242;20.940;2022-12-18T06:46:09;50.03;;;19.08;;
33593;SDS011;19920;52.242;20.940;2022-12-18T06:48:35;44.15;;;17.65;;
33593;SDS011;19920;52.242;20.940;2022-12-18T06:51:01;45.15;;;17.67;;
33593;SDS011;19920;52.242;20.940;2022-12-18T06:53:27;49.95;;;19.92;;
33593;SDS011;19920;52.242;20.940;2022-12-18T06:55:59;50.40;;;18.10;;
33593;SDS011;19920;52.242;20.940;2022-12-18T06:58:29;53.85;;;19.95;;
33593;SDS011;19920;52.242;20.940;2022-12-18T07:00:59;48.75;;;18.15;;
33593;SDS011;19920;52.242;20.940;2022-12-18T07:03:26;55.95;;;19.92;;
33593;SDS011;19920;52.242;20.940;2022-12-18T07:05:52;50.22;;;19.60;;
33593;SDS011;19920;52.242;20.940;2022-12-18T07:08:17;48.67;;;20.35;;
33593;SDS011;19920;52.242;20.940;2022-12-18T07:10:44;54.40;;;18.42;;
33593;SDS011;19920;52.242;20.940;2022-12-18T07:13:09;55.22;;;20.05;;
33593;SDS011;19920;52.242;20.940;2022-12-18T07:15:35;53.55;;;19.50;;
33593;SDS011;19920;52.242;20.940;2022-12-18T07:18:01;51.70;;;19.23;;
33593;SDS011;19920;52.242;20.940;2022-12-18T07:20:26;63.28;;;20.48;;
33593;SDS011;19920;52.242;20.940;2022-12-18T07:22:52;51.72;;;19.80;;
33593;SDS011;19920;52.242;20.940;2022-12-18T07:25:17;48.33;;;18.65;;
33593;SDS011;19920;52.242;20.940;2022-12-18T07:27:43;51.97;;;19.73;;
33593;SDS011;19920;52.242;20.940;2022-12-18T07:30:09;53.25;;;19.90;;
33593;SDS011;19920;52.242;20.940;2022-12-18T07:32:35;53.33;;;19.02;;
33593;SDS011;19920;52.242;20.940;2022-12-18T07:35:01;55.08;;;19.27;;
33593;SDS011;19920;52.242;20.940;2022-12-18T07:37:28;48.60;;;19.63;;
33593;SDS011;19920;52.242;20.940;2022-12-18T07:39:53;51.67;;;18.70;;
33593;SDS011;19920;52.242;20.940;2022-12-18T07:42:19;46.35;;;19.00;;
33593;SDS011;19920;52.242;20.940;2022-12-18T07:45:00;48.78;;;17.98;;
33593;SDS011;19920;52.242;20.940;2022-12-18T07:47:26;48.17;;;17.38;;
33593;SDS011;19920;52.242;20.940;2022-12-18T07:49:53;43.80;;;16.80;;
33593;SDS011;19920;52.242;20.940;2022-12-18T07:52:18;48.35;;;18.00;;
33593;SDS011;19920;52.242;20.940;2022-12-18T07:54:44;51.08;;;18.35;;
33593;SDS011;19920;52.242;20.940;2022-12-18T07:57:10;49.13;;;19.00;;
33593;SDS011;19920;52.242;20.940;2022-12-18T07:59:36;50.38;;;18.65;;
33593;SDS011;19920;52.242;20.940;2022-12-18T08:02:02;51.42;;;18.33;;
33593;SDS011;19920;52.242;20.940;2022-12-18T08:04:28;46.33;;;18.45;;
33593;SDS011;19920;52.242;20.940;2022-12-18T08:06:53;45.58;;;16.77;;
33593;SDS011;19920;52.242;20.940;2022-12-18T08:09:19;44.55;;;17.85;;
33593;SDS011;19920;52.242;20.940;2022-12-18T08:11:45;43.17;;;16.98;;
33593;SDS011;19920;52.242;20.940;2022-12-18T08:14:10;48.22;;;18.10;;
33593;SDS011;19920;52.242;20.940;2022-12-18T08:16:36;44.58;;;17.98;;
33593;SDS011;19920;52.242;20.940;2022-12-18T08:19:02;44.10;;;16.55;;
33593;SDS011;19920;52.242;20.940;2022-12-18T08:21:29;46.42;;;16.63;;
33593;SDS011;19920;52.242;20.940;2022-12-18T08:23:56;43.22;;;16.40;;
33593;SDS011;19920;52.242;20.940;2022-12-18T08:26:23;43.03;;;16.65;;
33593;SDS011;19920;52.242;20.940;2022-12-18T08:28:50;40.47;;;16.65;;
33593;SDS011;19920;52.242;20.940;2022-12-18T08:31:17;41.78;;;15.95;;
33593;SDS011;19920;52.242;20.940;2022-12-18T08:33:43;50.33;;;17.27;;
33593;SDS011;19920;52.242;20.940;2022-12-18T08:36:09;44.42;;;17.70;;
33593;SDS011;19920;52.242;20.940;2022-12-18T08:38:35;50.00;;;18.83;;
33593;SDS011;19920;52.242;20.940;2022-12-18T08:41:02;42.08;;;17.48;;
33593;SDS011;19920;52.242;20.940;2022-12-18T08:43:29;42.55;;;17.58;;
33593;SDS011;19920;52.242;20.940;2022-12-18T08:46:13;43.10;;;18.10;;
33593;SDS011;19920;52.242;20.940;2022-12-18T08:48:39;49.92;;;18.80;;
33593;SDS011;19920;52.242;20.940;2022-12-18T08:51:04;44.63;;;18.00;;
33593;SDS011;19920;52.242;20.940;2022-12-18T08:53:30;47.40;;;18.92;;
33593;SDS011;19920;52.242;20.940;2022-12-18T08:55:56;43.83;;;17.77;;
33593;SDS011;19920;52.242;20.940;2022-12-18T08:58:22;49.65;;;18.27;;
33593;SDS011;19920;52.242;20.940;2022-12-18T09:00:47;44.95;;;18.30;;
33593;SDS011;19920;52.242;20.940;2022-12-18T09:03:17;43.38;;;18.15;;
33593;SDS011;19920;52.242;20.940;2022-12-18T09:05:45;44.30;;;20.35;;
33593;SDS011;19920;52.242;20.940;2022-12-18T09:08:11;47.60;;;19.35;;
33593;SDS011;19920;52.242;20.940;2022-12-18T09:10:41;45.78;;;18.35;;
33593;SDS011;19920;52.242;20.940;2022-12-18T09:13:08;48.40;;;18.23;;
33593;SDS011;19920;52.242;20.940;2022-12-18T09:15:39;48.17;;;18.80;;
33593;SDS011;19920;52.242;20.940;2022-12-18T09:18:10;45.58;;;19.08;;
33593;SDS011;19920;52.242;20.940;2022-12-18T09:20:36;45.50;;;18.25;;
33593;SDS011;19920;52.242;20.940;2022-12-18T09:23:03;43.38;;;18.33;;
33593;SDS011;19920;52.242;20.940;2022-12-18T09:25:29;48.63;;;19.50;;
33593;SDS011;19920;52.242;20.940;2022-12-18T09:28:00;47.60;;;18.73;;
33593;SDS011;19920;52.242;20.940;2022-12-18T09:30:37;46.67;;;19.08;;
33593;SDS011;19920;52.242;20.940;2022-12-18T09:33:04;45.67;;;20.48;;
33593;SDS011;19920;52.242;20.940;2022-12-18T09:35:30;54.55;;;22.25;;
33593;SDS011;19920;52.242;20.940;2022-12-18T09:37:56;46.42;;;19.63;;
33593;SDS011;19920;52.242;20.940;2022-12-18T09:40:22;50.25;;;22.83;;
33593;SDS011;19920;52.242;20.940;2022-12-18T09:42:55;46.58;;;20.45;;
33593;SDS011;19920;52.242;20.940;2022-12-18T09:45:24;46.20;;;19.55;;
33593;SDS011;19920;52.242;20.940;2022-12-18T09:47:50;46.40;;;20.40;;
33593;SDS011;19920;52.242;20.940;2022-12-18T09:52:48;55.67;;;21.85;;
33593;SDS011;19920;52.242;20.940;2022-12-18T09:55:27;57.35;;;23.02;;
33593;SDS011;19920;52.242;20.940;2022-12-18T09:58:04;51.88;;;22.48;;
33593;SDS011;19920;52.242;20.940;2022-12-18T10:00:52;50.05;;;20.98;;
33593;SDS011;19920;52.242;20.940;2022-12-18T10:03:18;52.85;;;21.45;;
33593;SDS011;19920;52.242;20.940;2022-12-18T10:08:41;59.80;;;22.17;;
33593;SDS011;19920;52.242;20.940;2022-12-18T10:16:38;54.60;;;22.80;;
33593;SDS011;19920;52.242;20.940;2022-12-18T10:27:09;55.10;;;22.70;;
33593;SDS011;19920;52.242;20.940;2022-12-18T10:29:36;58.28;;;22.52;;
33593;SDS011;19920;52.242;20.940;2022-12-18T10:32:02;57.55;;;23.08;;
33593;SDS011;19920;52.242;20.940;2022-12-18T10:34:28;54.92;;;22.92;;
33593;SDS011;19920;52.242;20.940;2022-12-18T10:36:54;54.58;;;21.90;;
33593;SDS011;19920;52.242;20.940;2022-12-18T10:39:20;55.80;;;22.42;;
33593;SDS011;19920;52.242;20.940;2022-12-18T10:41:49;56.28;;;22.10;;
33593;SDS011;19920;52.242;20.940;2022-12-18T10:44:16;61.90;;;24.05;;
33593;SDS011;19920;52.242;20.940;2022-12-18T10:46:50;63.60;;;23.85;;
33593;SDS011;19920;52.242;20.940;2022-12-18T10:49:26;62.28;;;24.20;;
33593;SDS011;19920;52.242;20.940;2022-12-18T10:52:11;63.22;;;24.17;;
33593;SDS011;19920;52.242;20.940;2022-12-18T10:54:46;60.72;;;23.65;;
33593;SDS011;19920;52.242;20.940;2022-12-18T10:57:17;65.57;;;25.00;;
33593;SDS011;19920;52.242;20.940;2022-12-18T10:59:56;64.30;;;24.90;;
33593;SDS011;19920;52.242;20.940;2022-12-18T11:04:57;59.05;;;22.58;;
33593;SDS011;19920;52.242;20.940;2022-12-18T11:07:23;57.72;;;22.60;;
33593;SDS011;19920;52.242;20.940;2022-12-18T11:09:59;60.97;;;24.08;;
33593;SDS011;19920;52.242;20.940;2022-12-18T11:12:26;57.72;;;24.33;;
33593;SDS011;19920;52.242;20.940;2022-12-18T11:14:54;61.00;;;25.40;;
33593;SDS011;19920;52.242;20.940;2022-12-18T11:17:35;55.90;;;23.83;;
33593;SDS011;19920;52.242;20.940;2022-12-18T11:20:02;58.85;;;23.85;;
33593;SDS011;19920;52.242;20.940;2022-12-18T11:22:35;62.28;;;25.67;;
33593;SDS011;19920;52.242;20.940;2022-12-18T11:27:37;57.60;;;24.73;;
33593;SDS011;19920;52.242;20.940;2022-12-18T11:30:22;66.53;;;24.73;;
33593;SDS011;19920;52.242;20.940;2022-12-18T11:33:06;60.63;;;24.95;;
33593;SDS011;19920;52.242;20.940;2022-12-18T11:35:48;66.03;;;25.30;;
33593;SDS011;19920;52.242;20.940;2022-12-18T11:38:23;67.80;;;24.75;;
33593;SDS011;19920;52.242;20.940;2022-12-18T11:40:54;65.13;;;26.23;;
33593;SDS011;19920;52.242;20.940;2022-12-18T11:43:28;61.88;;;24.10;;
33593;SDS011;19920;52.242;20.940;2022-12-18T11:46:14;60.50;;;24.17;;
33593;SDS011;19920;52.242;20.940;2022-12-18T11:48:45;60.45;;;23.23;;
33593;SDS011;19920;52.242;20.940;2022-12-18T11:51:32;60.72;;;24.33;;
33593;SDS011;19920;52.242;20.940;2022-12-18T11:54:01;57.78;;;22.65;;
33593;SDS011;19920;52.242;20.940;2022-12-18T11:56:49;60.00;;;23.60;;
33593;SDS011;19920;52.242;20.940;2022-12-18T12:32:36;65.70;;;25.70;;
33593;SDS011;19920;52.242;20.940;2022-12-18T12:35:51;57.85;;;23.52;;
33593;SDS011;19920;52.242;20.940;2022-12-18T12:40:31;57.28;;;23.85;;
33593;SDS011;19920;52.242;20.940;2022-12-18T12:46:03;55.58;;;23.98;;
33593;SDS011;19920;52.242;20.940;2022-12-18T12:50:56;53.67;;;23.17;;
33593;SDS011;19920;52.242;20.940;2022-12-18T12:53:26;54.63;;;22.95;;
33593;SDS011;19920;52.242;20.940;2022-12-18T12:55:57;57.95;;;22.60;;
33593;SDS011;19920;52.242;20.940;2022-12-18T13:09:11;46.15;;;20.70;;
33593;SDS011;19920;52.242;20.940;2022-12-18T13:14:33;56.85;;;22.40;;
33593;SDS011;19920;52.242;20.940;2022-12-18T13:19:48;51.60;;;21.08;;
33593;SDS011;19920;52.242;20.940;2022-12-18T13:22:35;50.67;;;21.05;;
33593;SDS011;19920;52.242;20.940;2022-12-18T13:25:01;52.85;;;20.25;;
33593;SDS011;19920;52.242;20.940;2022-12-18T13:41:39;58.35;;;23.35;;
33593;SDS011;19920;52.242;20.940;2022-12-18T13:44:10;56.15;;;21.98;;
33593;SDS011;19920;52.242;20.940;2022-12-18T13:46:55;55.67;;;21.65;;
33593;SDS011;19920;52.242;20.940;2022-12-18T13:52:18;59.88;;;22.58;;
33593;SDS011;19920;52.242;20.940;2022-12-18T13:54:53;58.42;;;22.73;;
33593;SDS011;19920;52.242;20.940;2022-12-18T13:59:54;58.83;;;23.48;;
33593;SDS011;19920;52.242;20.940;2022-12-18T14:02:22;53.00;;;21.67;;
33593;SDS011;19920;52.242;20.940;2022-12-18T14:04:50;57.70;;;23.80;;
33593;SDS011;19920;52.242;20.940;2022-12-18T14:09:57;65.18;;;24.08;;
33593;SDS011;19920;52.242;20.940;2022-12-18T14:17:50;62.00;;;23.92;;
33593;SDS011;19920;52.242;20.940;2022-12-18T14:20:18;58.05;;;23.48;;
33593;SDS011;19920;52.242;20.940;2022-12-18T14:22:48;65.90;;;24.25;;
33593;SDS011;19920;52.242;20.940;2022-12-18T14:25:16;62.00;;;24.15;;
33593;SDS011;19920;52.242;20.940;2022-12-18T14:27:44;60.10;;;23.60;;
33593;SDS011;19920;52.242;20.940;2022-12-18T14:30:30;58.45;;;23.42;;
33593;SDS011;19920;52.242;20.940;2022-12-18T14:33:30;60.53;;;23.92;;
33593;SDS011;19920;52.242;20.940;2022-12-18T14:36:00;63.13;;;23.63;;
33593;SDS011;19920;52.242;20.940;2022-12-18T14:38:29;63.70;;;24.05;;
33593;SDS011;19920;52.242;20.940;2022-12-18T14:41:12;62.53;;;24.55;;
33593;SDS011;19920;52.242;20.940;2022-12-18T14:43:40;58.40;;;23.73;;
33593;SDS011;19920;52.242;20.940;2022-12-18T14:48:58;56.78;;;22.85;;
33593;SDS011;19920;52.242;20.940;2022-12-18T14:52:03;60.72;;;23.25;;
33593;SDS011;19920;52.242;20.940;2022-12-18T14:54:49;51.67;;;22.30;;
33593;SDS011;19920;52.242;20.940;2022-12-18T14:57:20;54.22;;;22.65;;
33593;SDS011;19920;52.242;20.940;2022-12-18T14:59:51;55.60;;;22.20;;
33593;SDS011;19920;52.242;20.940;2022-12-18T15:05:03;57.42;;;22.70;;
33593;SDS011;19920;52.242;20.940;2022-12-18T15:07:50;58.95;;;23.23;;
33593;SDS011;19920;52.242;20.940;2022-12-18T15:10:21;62.22;;;24.13;;
33593;SDS011;19920;52.242;20.940;2022-12-18T15:20:33;67.32;;;26.60;;
33593;SDS011;19920;52.242;20.940;2022-12-18T15:23:16;61.85;;;25.63;;
33593;SDS011;19920;52.242;20.940;2022-12-18T15:25:53;61.85;;;24.77;;
33593;SDS011;19920;52.242;20.940;2022-12-18T15:28:23;66.35;;;26.80;;
33593;SDS011;19920;52.242;20.940;2022-12-18T15:31:02;60.83;;;24.27;;
33593;SDS011;19920;52.242;20.940;2022-12-18T15:33:31;59.75;;;25.67;;
33593;SDS011;19920;52.242;20.940;2022-12-18T15:36:00;57.80;;;24.20;;
33593;SDS011;19920;52.242;20.940;2022-12-18T15:38:28;50.28;;;22.33;;
33593;SDS011;19920;52.242;20.940;2022-12-18T15:40:54;49.88;;;22.35;;
33593;SDS011;19920;52.242;20.940;2022-12-18T15:43:21;55.78;;;23.05;;
33593;SDS011;19920;52.242;20.940;2022-12-18T15:46:08;57.97;;;24.65;;
33593;SDS011;19920;52.242;20.940;2022-12-18T15:48:40;60.15;;;25.00;;
33593;SDS011;19920;52.242;20.940;2022-12-18T15:51:11;57.45;;;23.15;;
33593;SDS011;19920;52.242;20.940;2022-12-18T15:53:39;56.35;;;24.75;;
33593;SDS011;19920;52.242;20.940;2022-12-18T15:56:07;56.13;;;24.38;;
33593;SDS011;19920;52.242;20.940;2022-12-18T15:58:54;59.23;;;23.17;;
33593;SDS011;19920;52.242;20.940;2022-12-18T16:01:20;55.10;;;23.85;;
33593;SDS011;19920;52.242;20.940;2022-12-18T16:03:47;53.05;;;22.60;;
33593;SDS011;19920;52.242;20.940;2022-12-18T16:06:13;53.20;;;22.85;;
33593;SDS011;19920;52.242;20.940;2022-12-18T16:08:39;60.22;;;24.15;;
33593;SDS011;19920;52.242;20.940;2022-12-18T16:11:04;52.60;;;21.92;;
33593;SDS011;19920;52.242;20.940;2022-12-18T16:13:33;49.65;;;21.55;;
33593;SDS011;19920;52.242;20.940;2022-12-18T16:15:59;53.15;;;22.75;;
33593;SDS011;19920;52.242;20.940;2022-12-18T16:18:24;50.85;;;21.70;;
33593;SDS011;19920;52.242;20.940;2022-12-18T16:20:50;51.22;;;20.80;;
33593;SDS011;19920;52.242;20.940;2022-12-18T16:23:16;49.35;;;21.33;;
33593;SDS011;19920;52.242;20.940;2022-12-18T16:25:41;51.50;;;22.08;;
33593;SDS011;19920;52.242;20.940;2022-12-18T16:28:07;47.40;;;20.65;;
33593;SDS011;19920;52.242;20.940;2022-12-18T16:30:33;50.58;;;21.75;;
33593;SDS011;19920;52.242;20.940;2022-12-18T16:32:58;48.90;;;21.65;;
33593;SDS011;19920;52.242;20.940;2022-12-18T16:35:25;49.00;;;21.80;;
33593;SDS011;19920;52.242;20.940;2022-12-18T16:37:51;45.72;;;19.88;;
33593;SDS011;19920;52.242;20.940;2022-12-18T16:40:17;44.08;;;19.75;;
33593;SDS011;19920;52.242;20.940;2022-12-18T16:42:44;47.38;;;20.45;;
33593;SDS011;19920;52.242;20.940;2022-12-18T16:45:11;45.40;;;19.67;;
33593;SDS011;19920;52.242;20.940;2022-12-18T16:47:39;48.28;;;21.02;;
33593;SDS011;19920;52.242;20.940;2022-12-18T16:50:05;46.13;;;19.25;;
33593;SDS011;19920;52.242;20.940;2022-12-18T16:52:32;47.65;;;20.70;;
33593;SDS011;19920;52.242;20.940;2022-12-18T16:54:58;45.63;;;19.52;;
33593;SDS011;19920;52.242;20.940;2022-12-18T16:57:24;45.47;;;19.67;;
33593;SDS011;19920;52.242;20.940;2022-12-18T16:59:50;48.17;;;20.95;;
33593;SDS011;19920;52.242;20.940;2022-12-18T17:04:43;47.00;;;20.98;;
33593;SDS011;19920;52.242;20.940;2022-12-18T17:07:09;51.40;;;21.58;;